Terminal Aerodrome Forecast
Issued by NWS

Home | Current Version | Previous Version | Text Only | Print | Product List | Glossary On
Versions: 1 2 3 4 5 6 7 8 9 10 11 12 13 14 15
000
FTUS43 KICT 070527
TAFHUT
TAF
KHUT 070527Z 0706/0806 VRB03KT P6SM OVC100
     FM071200 07007KT P6SM -SN VCSH OVC080
     FM071500 05011KT 4SM -SN BR SCT035 OVC040
     FM071900 05013KT P6SM OVC035
     FM080000 36009KT P6SM BKN050
     FM080200 35009KT P6SM SCT120=

USA.gov is the U.S. government's official web portal to all federal, state and local government web resources and services.